Zitkovici, Belarus
Current Conditions -  °F | °C
As of 11:13 AM on Friday 19 Dec 2014 (Local Time) from UMMM Reporting Station
Drizzle Drizzle  
Wind Chill: 36°   Ceiling: 500
Heat Index: 43°   Visibility: 1.8mi
Dew Point: 41°   Wind: 13mph
Humidity: 93%   Direction: 230°SW
Pressure: 29.5"   Gusts: 20mph
Location:  52.22°N, 27.87°E
Report Text: UMMM 190913Z 23006G09MPS 3000 -DZ BR OVC005 06/05 Q0999 R30/290050NOSIG RMK QFE730 QBB170
Loading
Personal Weather Stations






























Interactive Weather Map New forecast layout! Learn more

10-Day Weather Forecast

Advertisements
Track Severe Weather on mobile